createdAt,value
2019-03-19T06:45:59.454Z,3.20
2019-03-19T06:48:30.284Z,3.30
2019-03-19T06:51:04.539Z,3.30
2019-03-19T06:53:38.186Z,3.40
2019-03-19T06:56:21.677Z,3.40
2019-03-19T12:11:05.477Z,12.90
2019-03-19T12:13:49.989Z,12.70
2019-03-19T12:16:32.964Z,13.00
2019-03-19T12:51:55.315Z,14.60
2019-03-19T12:55:02.631Z,14.00
2019-03-19T12:57:07.464Z,13.90
2019-03-19T13:02:47.335Z,14.20
2019-03-19T13:05:23.396Z,14.10
2019-03-19T13:07:57.609Z,14.10
2019-03-19T13:10:42.909Z,14.10
2019-03-19T13:13:23.685Z,14.10
2019-03-19T13:15:58.907Z,14.20
2019-03-19T13:18:37.495Z,14.10
2019-03-19T13:21:21.503Z,14.00
2019-03-19T13:24:00.550Z,13.90
2019-03-19T13:26:41.940Z,13.90
2019-03-19T13:29:28.500Z,13.70
2019-03-19T13:32:03.669Z,13.60
2019-03-19T13:34:34.775Z,13.40
2019-03-19T13:37:05.703Z,13.20
2019-03-19T13:39:35.705Z,13.10
2019-03-19T13:42:08.893Z,13.10
2019-03-19T13:44:38.954Z,13.00
2019-03-19T13:47:09.982Z,12.90
2019-03-19T13:49:46.754Z,12.80
2019-03-19T13:52:17.568Z,12.70
2019-03-19T13:54:50.901Z,12.70
2019-03-19T13:57:23.631Z,12.60
2019-03-19T14:00:10.598Z,12.60
2019-03-19T14:02:42.570Z,12.60
2019-03-19T14:05:26.761Z,12.50
2019-03-19T14:07:55.276Z,12.50
2019-03-19T14:10:25.393Z,12.40
2019-03-19T14:13:01.871Z,12.20
2019-03-19T14:15:46.856Z,12.20
2019-03-19T14:18:31.309Z,12.10
2019-03-19T14:21:13.067Z,12.10
2019-03-19T14:23:46.626Z,12.10
2019-03-19T14:26:25.957Z,12.10
2019-03-19T14:29:02.742Z,12.10
2019-03-19T14:31:36.273Z,12.10
2019-03-19T14:34:10.011Z,12.00
2019-03-19T14:36:40.527Z,12.00
2019-03-19T14:39:16.213Z,12.00
2019-03-19T14:41:46.068Z,11.90
2019-03-19T14:44:16.484Z,11.90
2019-03-19T14:46:49.135Z,11.90
2019-03-19T14:49:21.953Z,11.90
2019-03-19T14:51:52.336Z,11.90
2019-03-19T14:54:22.220Z,11.90
2019-03-19T14:56:55.055Z,11.90
2019-03-19T14:59:24.989Z,12.00
2019-03-19T15:01:55.620Z,12.00
2019-03-19T15:04:25.436Z,12.00
2019-03-19T15:07:02.546Z,12.00
2019-03-19T15:09:32.757Z,12.00
2019-03-19T15:12:09.278Z,12.00
2019-03-19T15:14:39.664Z,12.00
2019-03-19T15:17:11.289Z,12.00
2019-03-19T15:23:29.803Z,12.00
2019-03-19T15:25:50.533Z,12.00
2019-03-19T15:28:46.316Z,12.00
2019-03-19T15:49:05.096Z,11.80
2019-03-19T15:51:34.969Z,11.80
2019-03-19T15:54:26.642Z,11.80
2019-03-19T15:56:56.101Z,11.80
2019-03-19T15:59:25.960Z,11.80
2019-03-19T16:01:55.788Z,11.80
2019-03-19T16:04:25.529Z,11.70
2019-03-19T16:06:55.254Z,11.60
2019-03-19T16:09:25.091Z,11.60
2019-03-19T16:11:54.906Z,11.70
2019-03-19T16:14:24.755Z,11.70
2019-03-19T16:16:54.656Z,11.70
2019-03-19T16:19:25.260Z,11.70
2019-03-19T16:21:55.110Z,11.70
2019-03-19T16:24:25.036Z,11.60
2019-03-19T16:26:56.478Z,11.60
2019-03-19T16:29:46.253Z,11.50
2019-03-19T16:35:18.112Z,11.60
2019-03-19T16:37:54.079Z,11.60
2019-03-19T16:40:24.622Z,11.60
2019-03-19T16:42:54.919Z,11.60
2019-03-19T16:54:49.591Z,11.60
2019-03-19T16:57:23.820Z,11.60
2019-03-19T17:00:01.071Z,11.60
2019-03-19T17:02:30.974Z,11.60
2019-03-19T17:05:03.932Z,11.50
2019-03-19T17:07:36.714Z,11.50
2019-03-19T17:10:18.631Z,11.50
2019-03-19T17:13:02.231Z,11.50
2019-03-19T17:15:34.296Z,11.50
2019-03-19T17:18:06.660Z,11.40
2019-03-19T17:20:36.657Z,11.30
2019-03-19T17:23:07.775Z,11.30
2019-03-19T17:25:37.729Z,11.30
2019-03-19T17:31:12.808Z,11.20
2019-03-19T17:33:43.100Z,11.10
2019-03-19T17:36:12.990Z,11.00
2019-03-19T17:38:48.521Z,11.00
2019-03-19T17:41:20.144Z,11.00
2019-03-19T17:43:50.518Z,11.00
2019-03-19T17:46:20.599Z,11.00
2019-03-19T17:48:53.758Z,11.00
2019-03-19T17:51:25.953Z,11.00
2019-03-19T17:54:14.586Z,10.90
2019-03-19T19:34:23.518Z,9.50
2019-03-19T19:37:05.431Z,9.40
